createdAt,value
2023-03-06T00:00:20.111Z,0
2023-03-06T00:01:20.193Z,0
2023-03-06T00:02:20.134Z,0
2023-03-06T00:03:20.188Z,0
2023-03-06T00:04:20.136Z,0
2023-03-06T00:05:20.148Z,0
2023-03-06T00:06:20.486Z,0
2023-03-06T00:07:22.994Z,0
2023-03-06T00:08:20.146Z,0
2023-03-06T00:09:20.147Z,0
2023-03-06T00:10:20.017Z,0
2023-03-06T00:11:20.217Z,0
2023-03-06T00:12:23.715Z,0
2023-03-06T00:13:20.139Z,0
2023-03-06T00:14:20.220Z,0
2023-03-06T00:15:20.198Z,0
2023-03-06T00:16:20.393Z,0
2023-03-06T00:17:20.258Z,0
2023-03-06T00:18:23.092Z,0
2023-03-06T00:19:20.029Z,0
2023-03-06T00:20:20.208Z,0
2023-03-06T00:21:20.137Z,0
2023-03-06T00:22:20.188Z,0
2023-03-06T00:23:22.891Z,0
2023-03-06T00:24:19.987Z,0
2023-03-06T00:25:20.169Z,0
2023-03-06T00:26:20.008Z,0
2023-03-06T00:27:20.169Z,0
2023-03-06T00:28:20.593Z,0
2023-03-06T00:29:22.976Z,0
2023-03-06T00:30:20.271Z,0
2023-03-06T00:31:20.354Z,0
2023-03-06T00:32:20.430Z,0
2023-03-06T00:33:20.223Z,0
2023-03-06T00:34:23.271Z,0
2023-03-06T00:35:20.339Z,0
2023-03-06T00:36:20.166Z,0
2023-03-06T00:37:20.198Z,0
2023-03-06T00:38:20.240Z,0
2023-03-06T00:39:20.196Z,0
2023-03-06T00:40:23.101Z,0
2023-03-06T00:41:20.009Z,0
2023-03-06T00:42:20.250Z,0
2023-03-06T00:43:20.203Z,0
2023-03-06T00:44:20.029Z,0
2023-03-06T00:45:23.135Z,0
2023-03-06T00:46:20.427Z,0
2023-03-06T00:47:20.247Z,0
2023-03-06T00:48:20.217Z,0
2023-03-06T00:49:20.290Z,0
2023-03-06T00:50:20.245Z,0
2023-03-06T00:51:26.017Z,0
2023-03-06T00:52:20.038Z,0
2023-03-06T00:53:20.221Z,0
2023-03-06T00:54:20.196Z,0
2023-03-06T00:55:20.153Z,0
2023-03-06T00:56:24.597Z,0
2023-03-06T00:57:20.223Z,0
2023-03-06T00:58:20.207Z,0
2023-03-06T00:59:20.215Z,0
2023-03-06T01:00:20.273Z,0
2023-03-06T01:01:20.671Z,0
2023-03-06T01:02:23.654Z,0
2023-03-06T01:03:20.294Z,0
2023-03-06T01:04:20.283Z,0
2023-03-06T01:05:20.286Z,0
2023-03-06T01:06:20.236Z,0
2023-03-06T01:07:23.101Z,0
2023-03-06T01:08:20.257Z,0
2023-03-06T01:09:20.289Z,0
2023-03-06T01:10:20.266Z,0
2023-03-06T01:11:20.103Z,0
2023-03-06T01:12:22.837Z,0
2023-03-06T01:13:23.274Z,0
2023-03-06T01:14:20.138Z,0
2023-03-06T01:15:20.212Z,0
2023-03-06T01:16:20.479Z,0
2023-03-06T01:17:20.264Z,0
2023-03-06T01:18:23.078Z,0
2023-03-06T01:19:20.266Z,0
2023-03-06T01:20:20.246Z,0
2023-03-06T01:21:20.288Z,0
2023-03-06T01:22:20.241Z,0
2023-03-06T01:23:23.343Z,0
2023-03-06T01:24:20.350Z,0
2023-03-06T01:25:19.959Z,0
2023-03-06T01:26:20.276Z,0
2023-03-06T01:27:20.321Z,0
2023-03-06T01:28:20.239Z,0
2023-03-06T01:29:23.337Z,0
2023-03-06T01:30:20.299Z,0
2023-03-06T01:31:20.487Z,0
2023-03-06T01:32:20.375Z,0
2023-03-06T01:33:20.288Z,0
2023-03-06T01:34:21.371Z,0
2023-03-06T01:35:20.298Z,0
2023-03-06T01:36:20.314Z,0
2023-03-06T01:37:20.331Z,0
2023-03-06T01:38:20.257Z,0
2023-03-06T01:39:20.152Z,0
2023-03-06T01:40:23.412Z,0
2023-03-06T01:41:20.362Z,0
2023-03-06T01:42:20.307Z,0
2023-03-06T01:43:20.318Z,0
2023-03-06T01:44:20.280Z,0
2023-03-06T01:45:23.105Z,0
2023-03-06T01:46:20.532Z,0
2023-03-06T01:47:20.306Z,0
2023-03-06T01:48:20.296Z,0
2023-03-06T01:49:20.329Z,0
2023-03-06T01:50:20.290Z,0
2023-03-06T01:51:23.118Z,0
2023-03-06T01:52:20.393Z,0
2023-03-06T01:53:20.345Z,0
2023-03-06T01:54:20.481Z,0
2023-03-06T01:55:20.298Z,0
2023-03-06T01:56:23.384Z,0
2023-03-06T01:57:20.299Z,0
2023-03-06T01:58:20.343Z,0
2023-03-06T01:59:20.351Z,0
2023-03-06T02:00:20.401Z,0
2023-03-06T02:01:20.630Z,0
2023-03-06T02:02:20.702Z,0
2023-03-06T02:03:20.307Z,0
2023-03-06T02:04:20.296Z,0
2023-03-06T02:05:20.353Z,0
2023-03-06T02:06:20.344Z,0
2023-03-06T02:07:23.241Z,0
2023-03-06T02:08:20.392Z,0
2023-03-06T02:09:20.369Z,0
2023-03-06T02:10:20.389Z,0
2023-03-06T02:11:20.706Z,0
2023-03-06T02:12:20.453Z,0
2023-03-06T02:13:20.266Z,0
2023-03-06T02:14:20.388Z,0
2023-03-06T02:15:20.516Z,0
2023-03-06T02:16:20.383Z,0
2023-03-06T02:17:20.390Z,0
2023-03-06T02:18:20.403Z,0
2023-03-06T02:19:20.379Z,0
2023-03-06T02:20:20.365Z,0
2023-03-06T02:21:20.418Z,0
2023-03-06T02:22:20.523Z,0
2023-03-06T02:23:20.451Z,0
2023-03-06T02:24:20.377Z,0
2023-03-06T02:25:20.407Z,0
2023-03-06T02:26:20.396Z,0
2023-03-06T02:27:20.419Z,0
2023-03-06T02:28:20.381Z,0
2023-03-06T02:29:20.405Z,0
2023-03-06T02:30:20.256Z,0
2023-03-06T02:31:20.792Z,0
2023-03-06T02:32:20.704Z,0
2023-03-06T02:33:20.369Z,0
2023-03-06T02:34:21.468Z,0
2023-03-06T02:35:20.436Z,0
2023-03-06T02:36:20.412Z,0
2023-03-06T02:37:20.457Z,0
2023-03-06T02:38:20.378Z,0
2023-03-06T02:39:23.347Z,0
2023-03-06T02:40:20.511Z,0
2023-03-06T02:41:20.413Z,0
2023-03-06T02:42:20.419Z,0
2023-03-06T02:43:20.454Z,0
2023-03-06T02:44:20.398Z,0
2023-03-06T02:45:23.502Z,0
2023-03-06T02:46:20.878Z,0
2023-03-06T02:47:20.465Z,0
2023-03-06T02:48:20.388Z,0
2023-03-06T02:49:20.455Z,0
2023-03-06T02:50:23.398Z,0
2023-03-06T02:51:20.426Z,0
2023-03-06T02:52:20.535Z,0
2023-03-06T02:53:20.472Z,0
2023-03-06T02:54:20.434Z,0
2023-03-06T02:55:20.416Z,0
2023-03-06T02:56:23.205Z,0
2023-03-06T02:57:20.506Z,0
2023-03-06T02:58:20.394Z,0
2023-03-06T02:59:20.431Z,0
2023-03-06T03:00:20.410Z,0
2023-03-06T03:01:23.789Z,0
2023-03-06T03:02:20.503Z,0
2023-03-06T03:03:20.451Z,0
2023-03-06T03:04:20.698Z,0
2023-03-06T03:05:20.467Z,0
2023-03-06T03:06:20.433Z,0
2023-03-06T03:07:23.382Z,0
2023-03-06T03:08:20.443Z,0
2023-03-06T03:09:20.297Z,0
2023-03-06T03:10:20.456Z,0
2023-03-06T03:11:20.444Z,0
2023-03-06T03:12:23.664Z,0
2023-03-06T03:13:20.424Z,0
2023-03-06T03:14:20.471Z,0
2023-03-06T03:15:20.422Z,0
2023-03-06T03:16:20.790Z,0
2023-03-06T03:17:20.512Z,0
2023-03-06T03:18:23.521Z,0
2023-03-06T03:19:20.432Z,0
2023-03-06T03:20:20.467Z,0
2023-03-06T03:21:20.514Z,0
2023-03-06T03:22:20.463Z,0
2023-03-06T03:23:23.489Z,0
2023-03-06T03:24:20.663Z,0
2023-03-06T03:25:20.474Z,0
2023-03-06T03:26:20.497Z,0
2023-03-06T03:27:23.197Z,0
2023-03-06T03:28:20.531Z,0
2023-03-06T03:29:23.491Z,0
2023-03-06T03:30:20.555Z,0
2023-03-06T03:31:20.931Z,0
2023-03-06T03:32:20.670Z,0
2023-03-06T03:33:30.440Z,0
2023-03-06T03:34:23.537Z,0
2023-03-06T03:35:20.512Z,0
2023-03-06T03:36:20.488Z,0
2023-03-06T03:37:20.495Z,0
2023-03-06T03:38:20.520Z,0
2023-03-06T03:40:23.605Z,0
2023-03-06T03:41:20.478Z,0
2023-03-06T03:42:20.521Z,0
2023-03-06T03:43:20.514Z,0
2023-03-06T03:44:20.620Z,0
2023-03-06T03:45:21.554Z,0
2023-03-06T03:46:20.713Z,0
2023-03-06T03:47:20.509Z,0
2023-03-06T03:48:20.552Z,0
2023-03-06T03:49:20.482Z,0
2023-03-06T03:50:23.248Z,0
2023-03-06T03:51:23.540Z,0
2023-03-06T03:52:20.485Z,0
2023-03-06T03:53:20.506Z,0
2023-03-06T03:54:20.576Z,0
2023-03-06T03:55:20.544Z,0
2023-03-06T03:56:23.699Z,0
2023-03-06T03:57:20.573Z,0
2023-03-06T03:58:20.547Z,0
2023-03-06T03:59:20.497Z,0
2023-03-06T04:00:20.543Z,0
2023-03-06T04:01:23.664Z,0
2023-03-06T04:02:23.523Z,0
2023-03-06T04:03:20.539Z,0
2023-03-06T04:04:20.499Z,0
2023-03-06T04:05:20.558Z,0
2023-03-06T04:06:20.522Z,0
2023-03-06T04:07:25.148Z,0
2023-03-06T04:08:20.539Z,0
2023-03-06T04:09:20.521Z,0
2023-03-06T04:10:20.558Z,0
2023-03-06T04:11:20.500Z,0
2023-03-06T04:12:23.320Z,0
2023-03-06T04:13:20.589Z,0
2023-03-06T04:14:20.641Z,0
2023-03-06T04:15:28.054Z,0
2023-03-06T04:16:20.763Z,0
2023-03-06T04:17:20.524Z,0
2023-03-06T04:18:21.034Z,0
2023-03-06T04:19:20.530Z,0
2023-03-06T04:20:20.541Z,0
2023-03-06T04:21:20.544Z,0
2023-03-06T04:22:20.625Z,0
2023-03-06T04:23:23.605Z,0
2023-03-06T04:24:20.548Z,0
2023-03-06T04:25:20.551Z,0
2023-03-06T04:26:20.525Z,0
2023-03-06T04:27:20.550Z,0
2023-03-06T04:28:20.594Z,0
2023-03-06T04:29:20.598Z,0
2023-03-06T04:30:20.621Z,0
2023-03-06T04:31:20.865Z,0
2023-03-06T04:32:23.635Z,0
2023-03-06T04:33:20.570Z,0
2023-03-06T04:34:23.716Z,0
2023-03-06T04:35:20.622Z,0
2023-03-06T04:36:20.560Z,0
2023-03-06T04:37:20.584Z,0
2023-03-06T04:38:20.683Z,0
2023-03-06T04:39:20.656Z,0
2023-03-06T04:40:20.627Z,0
2023-03-06T04:41:21.104Z,0
2023-03-06T04:42:20.577Z,0
2023-03-06T04:43:20.611Z,0
2023-03-06T04:44:20.246Z,0
2023-03-06T04:45:20.597Z,0
2023-03-06T04:46:20.632Z,0
2023-03-06T04:47:23.570Z,0
2023-03-06T04:48:20.835Z,0
2023-03-06T04:49:20.619Z,0
2023-03-06T04:50:20.620Z,0
2023-03-06T04:51:20.619Z,0
2023-03-06T04:52:20.588Z,0
2023-03-06T04:53:20.609Z,0
2023-03-06T04:54:23.437Z,0
2023-03-06T04:55:20.640Z,0
2023-03-06T04:56:20.602Z,0
2023-03-06T04:57:20.717Z,0
2023-03-06T04:58:20.614Z,0
2023-03-06T04:59:20.661Z,0
2023-03-06T05:00:20.572Z,0
2023-03-06T05:01:23.909Z,0
2023-03-06T05:02:20.835Z,0
2023-03-06T05:03:20.656Z,0
2023-03-06T05:04:20.613Z,0
2023-03-06T05:05:20.692Z,0
2023-03-06T05:06:23.362Z,0
2023-03-06T05:07:20.502Z,0
2023-03-06T05:08:20.779Z,0
2023-03-06T05:09:20.666Z,0
2023-03-06T05:10:20.654Z,0
2023-03-06T05:11:20.674Z,0
2023-03-06T05:12:23.732Z,0
2023-03-06T05:13:20.470Z,0
2023-03-06T05:14:20.734Z,0
2023-03-06T05:15:20.626Z,0
2023-03-06T05:16:20.966Z,0
2023-03-06T05:17:23.491Z,0
2023-03-06T05:18:20.639Z,0
2023-03-06T05:19:20.846Z,0
2023-03-06T05:20:20.699Z,0
2023-03-06T05:21:20.706Z,0
2023-03-06T05:22:20.641Z,0
2023-03-06T05:23:23.421Z,0
2023-03-06T05:24:20.721Z,0
2023-03-06T05:25:20.690Z,0
2023-03-06T05:26:20.823Z,0
2023-03-06T05:27:23.650Z,0
2023-03-06T05:28:23.718Z,0
2023-03-06T05:29:20.733Z,0
2023-03-06T05:30:20.753Z,0
2023-03-06T05:31:20.853Z,0
2023-03-06T05:32:21.268Z,0
2023-03-06T05:33:20.702Z,0
2023-03-06T05:34:23.632Z,0
2023-03-06T05:35:21.044Z,0
2023-03-06T05:36:20.645Z,0
2023-03-06T05:37:21.511Z,0
2023-03-06T05:38:20.693Z,0
2023-03-06T05:39:23.682Z,0
2023-03-06T05:40:20.737Z,0
2023-03-06T05:41:20.728Z,0
2023-03-06T05:42:20.729Z,0
2023-03-06T05:43:20.670Z,0
2023-03-06T05:44:20.743Z,0
2023-03-06T05:45:23.510Z,0
2023-03-06T05:46:21.079Z,0
2023-03-06T05:47:20.722Z,0
2023-03-06T05:48:20.735Z,0
2023-03-06T05:49:20.744Z,0
2023-03-06T05:50:23.486Z,0
2023-03-06T05:51:20.695Z,0
2023-03-06T05:52:20.916Z,0
2023-03-06T05:53:20.745Z,0
2023-03-06T05:54:20.695Z,0
2023-03-06T05:55:20.713Z,0
2023-03-06T05:56:23.824Z,0
2023-03-06T05:57:20.714Z,0
2023-03-06T05:58:20.901Z,0
2023-03-06T05:59:20.688Z,0
2023-03-06T06:00:20.741Z,0
2023-03-06T06:01:23.635Z,0
2023-03-06T06:02:22.018Z,0
2023-03-06T06:03:20.962Z,0
2023-03-06T06:04:20.721Z,0
2023-03-06T06:05:22.349Z,0
2023-03-06T06:06:20.772Z,0
2023-03-06T06:07:23.462Z,0
2023-03-06T06:08:20.746Z,0
2023-03-06T06:09:23.098Z,0
2023-03-06T06:10:20.733Z,0
2023-03-06T06:11:20.744Z,0
2023-03-06T06:12:21.794Z,0
2023-03-06T06:13:20.703Z,0
2023-03-06T06:14:20.734Z,0
2023-03-06T06:15:20.717Z,0
2023-03-06T06:16:21.408Z,0
2023-03-06T06:17:23.982Z,0
2023-03-06T06:18:23.779Z,0
2023-03-06T06:19:20.767Z,0
2023-03-06T06:20:20.734Z,0
2023-03-06T06:21:20.794Z,0
2023-03-06T06:22:20.761Z,0
2023-03-06T06:23:23.519Z,0
2023-03-06T06:24:20.812Z,0
2023-03-06T06:25:20.758Z,0
2023-03-06T06:26:20.796Z,0
2023-03-06T06:27:20.849Z,0
2023-03-06T06:28:23.753Z,0
2023-03-06T06:29:20.620Z,0
2023-03-06T06:30:20.781Z,0
2023-03-06T06:31:21.070Z,0
2023-03-06T06:32:20.926Z,0
2023-03-06T06:33:20.745Z,0
2023-03-06T06:34:23.962Z,0
2023-03-06T06:35:20.776Z,0
2023-03-06T06:36:20.539Z,0
2023-03-06T06:37:21.152Z,0
2023-03-06T06:38:20.794Z,0
2023-03-06T06:39:23.983Z,0
2023-03-06T06:40:20.785Z,0
2023-03-06T06:42:40.553Z,5
2023-03-06T06:42:50.070Z,5
2023-03-06T06:43:49.891Z,5
2023-03-06T06:44:50.219Z,5
2023-03-06T06:45:52.184Z,5
2023-03-06T06:47:35.664Z,5
2023-03-06T06:47:53.469Z,5
2023-03-06T06:48:49.990Z,5
2023-03-06T06:49:50.061Z,5
2023-03-06T06:50:50.044Z,5
2023-03-06T06:51:50.294Z,5
2023-03-06T06:52:53.081Z,5
2023-03-06T06:53:50.105Z,5
2023-03-06T06:54:50.110Z,5
2023-03-06T06:55:50.027Z,5
2023-03-06T06:56:50.172Z,5
2023-03-06T06:57:50.159Z,0
2023-03-06T06:58:52.979Z,0
2023-03-06T06:59:52.359Z,0
2023-03-06T07:00:50.086Z,0
2023-03-06T07:01:50.458Z,5
2023-03-06T07:02:50.157Z,5
2023-03-06T07:03:54.588Z,5
2023-03-06T07:05:11.665Z,5
2023-03-06T07:05:50.110Z,5
2023-03-06T07:06:50.051Z,5
2023-03-06T07:07:50.071Z,5
2023-03-06T07:08:50.075Z,5
2023-03-06T07:09:53.258Z,5
2023-03-06T07:10:50.053Z,5
2023-03-06T07:11:50.017Z,5
2023-03-06T07:12:50.361Z,5
2023-03-06T07:13:49.900Z,5
2023-03-06T07:14:53.237Z,5
2023-03-06T07:15:50.302Z,5
2023-03-06T07:16:50.111Z,5
2023-03-06T07:17:52.453Z,5
2023-03-06T07:18:50.237Z,5
2023-03-06T07:19:51.348Z,5
2023-03-06T07:20:50.085Z,5
2023-03-06T07:21:50.091Z,5
2023-03-06T07:23:00.014Z,5
2023-03-06T07:23:50.079Z,5
2023-03-06T07:24:50.128Z,5
2023-03-06T07:25:53.086Z,5
2023-03-06T07:26:50.150Z,5
2023-03-06T07:27:58.870Z,5
2023-03-06T07:29:01.602Z,5
2023-03-06T07:29:50.103Z,5
2023-03-06T07:30:51.326Z,5
2023-03-06T07:31:50.104Z,5
2023-03-06T07:32:50.308Z,5
2023-03-06T07:33:50.106Z,5
2023-03-06T07:34:50.080Z,5
2023-03-06T07:35:50.432Z,5
2023-03-06T07:36:53.075Z,5
2023-03-06T07:37:50.101Z,5
2023-03-06T07:38:50.168Z,5
2023-03-06T07:39:50.143Z,5
2023-03-06T07:40:50.138Z,5
2023-03-06T07:41:53.178Z,5
2023-03-06T07:42:50.106Z,5
2023-03-06T07:43:50.109Z,5
2023-03-06T07:44:50.243Z,5
2023-03-06T07:45:50.088Z,5
2023-03-06T07:46:50.745Z,5
2023-03-06T07:47:52.898Z,5
2023-03-06T07:48:50.128Z,5
2023-03-06T07:49:50.152Z,5
2023-03-06T07:50:50.117Z,5
2023-03-06T07:51:50.128Z,5
2023-03-06T07:52:52.983Z,5
2023-03-06T07:53:50.130Z,5
2023-03-06T07:54:50.175Z,5
2023-03-06T07:55:50.123Z,5
2023-03-06T07:56:50.132Z,5
2023-03-06T07:57:50.252Z,5
2023-03-06T07:58:52.941Z,5
2023-03-06T07:59:50.132Z,5
2023-03-06T08:00:50.174Z,10
2023-03-06T08:01:50.135Z,10
2023-03-06T08:02:50.587Z,10
2023-03-06T08:03:53.391Z,10
2023-03-06T08:04:50.245Z,10
2023-03-06T08:05:50.209Z,10
2023-03-06T08:06:50.144Z,10
2023-03-06T08:07:50.197Z,10
2023-03-06T08:08:50.220Z,10
2023-03-06T08:09:50.251Z,10
2023-03-06T08:10:50.169Z,10
2023-03-06T08:11:50.136Z,10
2023-03-06T08:12:50.182Z,10
2023-03-06T08:13:50.193Z,10
2023-03-06T08:14:58.975Z,10
2023-03-06T08:15:50.157Z,10
2023-03-06T08:16:50.243Z,10
2023-03-06T08:17:50.142Z,15
2023-03-06T08:18:53.103Z,15
2023-03-06T08:19:50.217Z,15
2023-03-06T08:20:50.207Z,15
2023-03-06T08:21:50.214Z,15
2023-03-06T08:22:50.193Z,15
2023-03-06T08:23:50.202Z,15
2023-03-06T08:24:50.168Z,15
2023-03-06T08:25:50.225Z,15
2023-03-06T08:26:50.188Z,15
2023-03-06T08:27:50.229Z,15
2023-03-06T08:28:50.196Z,15
2023-03-06T08:29:50.216Z,15
2023-03-06T08:30:50.401Z,15
2023-03-06T08:31:50.524Z,15
2023-03-06T08:32:50.322Z,15
2023-03-06T08:33:50.227Z,15
2023-03-06T08:34:50.269Z,15
2023-03-06T08:35:50.366Z,15
2023-03-06T08:36:50.181Z,15
2023-03-06T08:37:50.461Z,15
2023-03-06T08:38:50.239Z,15
2023-03-06T08:39:50.183Z,15
2023-03-06T08:40:50.242Z,15
2023-03-06T08:41:53.215Z,15
2023-03-06T08:42:50.191Z,15
2023-03-06T08:43:52.956Z,15
2023-03-06T08:44:50.214Z,15
2023-03-06T08:45:50.710Z,15
2023-03-06T08:46:53.205Z,15
2023-03-06T08:47:50.244Z,15
2023-03-06T08:48:50.245Z,15
2023-03-06T08:49:50.271Z,15
2023-03-06T08:50:50.255Z,15
2023-03-06T08:51:50.195Z,20
2023-03-06T08:52:53.062Z,20
2023-03-06T08:53:53.078Z,20
2023-03-06T08:54:50.241Z,20
2023-03-06T08:55:50.233Z,20
2023-03-06T08:56:50.239Z,20
2023-03-06T08:57:52.978Z,20
2023-03-06T08:58:50.255Z,15
2023-03-06T08:59:50.248Z,15
2023-03-06T09:00:50.743Z,15
2023-03-06T09:01:50.458Z,15
2023-03-06T09:02:50.415Z,15
2023-03-06T09:03:53.333Z,15
2023-03-06T09:04:50.286Z,15
2023-03-06T09:05:50.275Z,20
2023-03-06T09:06:50.292Z,20
2023-03-06T09:07:50.240Z,20
2023-03-06T09:08:53.377Z,15
2023-03-06T09:09:50.268Z,15
2023-03-06T09:10:50.513Z,20
2023-03-06T09:11:50.240Z,20
2023-03-06T09:13:02.070Z,20
2023-03-06T09:13:50.261Z,20
2023-03-06T09:14:53.248Z,20
2023-03-06T09:15:50.257Z,20
2023-03-06T09:16:50.638Z,20
2023-03-06T09:17:51.048Z,20
2023-03-06T09:18:50.300Z,20
2023-03-06T09:19:53.334Z,20
2023-03-06T09:20:50.288Z,20
2023-03-06T09:21:50.427Z,20
2023-03-06T09:22:50.398Z,20
2023-03-06T09:23:50.249Z,20
2023-03-06T09:24:50.257Z,20
2023-03-06T09:25:53.337Z,20
2023-03-06T09:26:58.204Z,20
2023-03-06T09:28:10.741Z,20
2023-03-06T09:28:50.342Z,20
2023-03-06T09:29:50.285Z,20
2023-03-06T09:30:53.360Z,20
2023-03-06T09:31:50.364Z,20
2023-03-06T09:32:50.368Z,20
2023-03-06T09:33:50.437Z,20
2023-03-06T09:34:50.279Z,20
2023-03-06T09:35:50.543Z,20
2023-03-06T09:37:05.672Z,20
2023-03-06T09:37:50.272Z,25
2023-03-06T09:38:50.345Z,25
2023-03-06T09:39:50.334Z,35
2023-03-06T09:40:50.342Z,35
2023-03-06T09:41:53.433Z,40
2023-03-06T09:42:50.300Z,35
2023-03-06T09:43:50.289Z,30
2023-03-06T09:44:50.305Z,30
2023-03-06T09:45:50.568Z,25
2023-03-06T09:46:53.379Z,25
2023-03-06T09:47:53.082Z,30
2023-03-06T09:48:50.428Z,30
2023-03-06T09:49:50.457Z,30
2023-03-06T09:50:50.299Z,30
2023-03-06T09:51:50.291Z,30
2023-03-06T09:52:53.158Z,30
2023-03-06T09:53:50.336Z,30
2023-03-06T09:54:50.460Z,30
2023-03-06T09:55:50.324Z,25
2023-03-06T09:56:50.301Z,20
2023-03-06T09:57:55.667Z,20
2023-03-06T09:58:50.538Z,20
2023-03-06T09:59:50.307Z,20
2023-03-06T10:00:50.348Z,15
2023-03-06T10:01:50.338Z,15
2023-03-06T10:02:51.166Z,15
2023-03-06T10:03:53.261Z,15
2023-03-06T10:04:50.773Z,15
2023-03-06T10:05:50.452Z,10
2023-03-06T10:06:50.341Z,10
2023-03-06T10:07:50.292Z,10
2023-03-06T10:08:53.384Z,10
2023-03-06T10:09:50.343Z,10
2023-03-06T10:10:50.363Z,10
2023-03-06T10:11:50.330Z,10
2023-03-06T10:12:50.324Z,10
2023-03-06T10:13:50.461Z,15
2023-03-06T10:14:53.968Z,15
2023-03-06T10:15:50.638Z,15
2023-03-06T10:16:50.333Z,15
2023-03-06T10:17:50.335Z,20
2023-03-06T10:18:50.374Z,20
2023-03-06T10:19:53.370Z,20
2023-03-06T10:20:50.384Z,20
2023-03-06T10:21:50.624Z,20
2023-03-06T10:23:07.730Z,15
2023-03-06T10:23:50.352Z,15
2023-03-06T10:24:50.357Z,15
2023-03-06T10:25:53.646Z,15
2023-03-06T10:26:51.067Z,15
2023-03-06T10:27:50.301Z,15
2023-03-06T10:28:50.358Z,15
2023-03-06T10:30:08.970Z,15
2023-03-06T10:30:54.293Z,15
2023-03-06T10:31:51.840Z,15
2023-03-06T10:32:58.259Z,15
2023-03-06T10:33:51.425Z,10
2023-03-06T10:34:53.364Z,10
2023-03-06T10:35:50.824Z,15
2023-03-06T10:36:50.399Z,15
2023-03-06T10:37:51.429Z,15
2023-03-06T10:38:50.470Z,15
2023-03-06T10:39:50.446Z,15
2023-03-06T10:40:50.401Z,15
2023-03-06T10:41:53.226Z,15
2023-03-06T10:43:09.474Z,15
2023-03-06T10:43:50.385Z,15
2023-03-06T10:44:50.419Z,15
2023-03-06T10:45:58.582Z,15
2023-03-06T10:46:51.012Z,15
2023-03-06T10:47:50.454Z,15
2023-03-06T10:48:51.814Z,15
2023-03-06T10:49:50.368Z,15
2023-03-06T10:50:50.457Z,15
2023-03-06T10:51:50.417Z,15
2023-03-06T10:52:51.406Z,15
2023-03-06T10:53:50.510Z,15
2023-03-06T10:54:50.475Z,15
2023-03-06T10:55:50.363Z,15
2023-03-06T10:56:50.444Z,10
2023-03-06T10:57:50.525Z,10
2023-03-06T10:58:50.428Z,10
2023-03-06T10:59:50.465Z,15
2023-03-06T11:00:50.495Z,15
2023-03-06T11:01:50.943Z,15
2023-03-06T11:02:50.490Z,15
2023-03-06T11:03:51.426Z,15
2023-03-06T11:04:50.800Z,15
2023-03-06T11:05:50.402Z,15
2023-03-06T11:06:50.397Z,20
2023-03-06T11:07:50.390Z,20
2023-03-06T11:08:53.554Z,20
2023-03-06T11:09:50.474Z,15
2023-03-06T11:10:50.395Z,15
2023-03-06T11:11:50.433Z,15
2023-03-06T11:12:51.429Z,15
2023-03-06T11:13:53.446Z,20
2023-03-06T11:14:50.450Z,20
2023-03-06T11:15:50.806Z,20
2023-03-06T11:16:50.469Z,20
2023-03-06T11:17:50.514Z,20
2023-03-06T11:18:50.394Z,20
2023-03-06T11:19:53.477Z,20
2023-03-06T11:21:03.889Z,20
2023-03-06T11:21:50.471Z,20
2023-03-06T11:22:53.594Z,20
2023-03-06T11:23:50.449Z,20
2023-03-06T11:24:51.569Z,20
2023-03-06T11:25:53.456Z,15
2023-03-06T11:26:51.199Z,15
2023-03-06T11:27:53.144Z,20
2023-03-06T11:28:50.530Z,20
2023-03-06T11:29:50.533Z,20
2023-03-06T11:30:50.600Z,20
2023-03-06T11:31:50.663Z,15
2023-03-06T11:32:50.485Z,20
2023-03-06T11:33:50.471Z,20
2023-03-06T11:34:53.835Z,20
2023-03-06T11:35:53.617Z,20
2023-03-06T11:36:50.479Z,20
2023-03-06T11:37:50.461Z,20
2023-03-06T11:38:50.479Z,20
2023-03-06T11:39:50.456Z,20
2023-03-06T11:40:50.395Z,20
2023-03-06T11:41:53.894Z,20
2023-03-06T11:42:50.452Z,20
2023-03-06T11:43:50.426Z,20
2023-03-06T11:44:50.596Z,20
2023-03-06T11:45:50.479Z,20
2023-03-06T11:46:53.786Z,20
2023-03-06T11:47:50.453Z,20
2023-03-06T11:48:50.489Z,20
2023-03-06T11:49:53.218Z,20
2023-03-06T11:50:51.527Z,20
2023-03-06T11:51:50.544Z,20
2023-03-06T11:52:51.677Z,20
2023-03-06T11:53:51.669Z,20
2023-03-06T11:54:50.481Z,20
2023-03-06T11:55:53.494Z,20
2023-03-06T11:56:50.505Z,20
2023-03-06T11:57:56.349Z,15
2023-03-06T11:58:50.512Z,15
2023-03-06T11:59:50.504Z,15
2023-03-06T12:00:50.489Z,15
2023-03-06T12:01:50.778Z,20
2023-03-06T12:02:50.464Z,20
2023-03-06T12:03:53.478Z,20
2023-03-06T12:04:50.518Z,20
2023-03-06T12:05:50.774Z,20
2023-03-06T12:06:50.542Z,20
2023-03-06T12:07:50.489Z,25
2023-03-06T12:08:51.522Z,25
2023-03-06T12:09:50.481Z,25
2023-03-06T12:10:56.658Z,25
2023-03-06T12:11:50.526Z,25
2023-03-06T12:12:51.475Z,25
2023-03-06T12:13:53.653Z,25
2023-03-06T12:14:53.526Z,25
2023-03-06T12:15:50.492Z,25
2023-03-06T12:16:50.767Z,25
2023-03-06T12:17:50.538Z,25
2023-03-06T12:18:50.543Z,25
2023-03-06T12:19:53.248Z,25
2023-03-06T12:20:50.497Z,25
2023-03-06T12:21:50.527Z,25
2023-03-06T12:23:19.618Z,25
2023-03-06T12:23:50.501Z,25
2023-03-06T12:24:53.499Z,25
2023-03-06T12:25:50.507Z,25
2023-03-06T12:26:50.617Z,20
2023-03-06T12:27:50.517Z,20
2023-03-06T12:28:52.810Z,20
2023-03-06T12:29:50.541Z,20
2023-03-06T12:30:53.625Z,20
2023-03-06T12:31:50.795Z,20
2023-03-06T12:32:50.739Z,20
2023-03-06T12:33:50.554Z,20
2023-03-06T12:34:52.726Z,20
2023-03-06T12:36:06.406Z,20
2023-03-06T12:36:55.528Z,20
2023-03-06T12:37:50.562Z,20
2023-03-06T12:38:54.849Z,20
2023-03-06T12:39:53.000Z,20
2023-03-06T12:40:50.542Z,20
2023-03-06T12:42:51.022Z,20
2023-03-06T12:43:52.969Z,20
2023-03-06T12:44:52.687Z,20
2023-03-06T12:45:52.688Z,20
2023-03-06T12:46:54.079Z,20
2023-03-06T12:47:50.513Z,20
2023-03-06T12:48:50.519Z,20
2023-03-06T12:49:52.131Z,20
2023-03-06T12:50:51.164Z,20
2023-03-06T12:51:53.608Z,20
2023-03-06T12:52:54.685Z,20
2023-03-06T12:53:53.946Z,20
2023-03-06T12:54:52.208Z,20
2023-03-06T12:55:50.852Z,20
2023-03-06T12:56:50.930Z,20
2023-03-06T12:57:54.215Z,20
2023-03-06T12:58:51.003Z,20
2023-03-06T12:59:53.469Z,20
2023-03-06T13:01:06.350Z,20
2023-03-06T13:01:51.451Z,20
2023-03-06T13:02:51.345Z,20
2023-03-06T13:03:51.138Z,20
2023-03-06T13:04:50.989Z,20
2023-03-06T13:05:51.160Z,20
2023-03-06T13:06:59.731Z,20
2023-03-06T13:07:50.716Z,20
2023-03-06T13:08:55.398Z,20
2023-03-06T13:09:50.407Z,20
2023-03-06T13:10:50.844Z,20
2023-03-06T13:11:50.883Z,20
2023-03-06T13:12:50.886Z,15
2023-03-06T13:13:51.087Z,15
2023-03-06T13:15:05.388Z,10
2023-03-06T13:15:50.804Z,10
2023-03-06T13:16:51.399Z,5
2023-03-06T13:17:50.957Z,5
2023-03-06T13:18:53.827Z,10
2023-03-06T13:19:50.600Z,10
2023-03-06T13:20:50.880Z,15
2023-03-06T13:21:50.991Z,20
2023-03-06T13:22:51.345Z,20
2023-03-06T13:23:51.008Z,20
2023-03-06T13:24:55.009Z,20
2023-03-06T13:25:54.720Z,20
2023-03-06T13:26:50.838Z,20
2023-03-06T13:27:51.009Z,20
2023-03-06T13:28:50.873Z,20
2023-03-06T13:29:50.882Z,20
2023-03-06T13:30:56.657Z,20
2023-03-06T13:31:51.299Z,15
2023-03-06T13:32:51.140Z,15
2023-03-06T13:33:51.066Z,15
2023-03-06T13:34:50.990Z,15
2023-03-06T13:35:54.390Z,10
2023-03-06T13:36:54.076Z,10
2023-03-06T13:37:52.011Z,10
2023-03-06T13:38:52.059Z,10
2023-03-06T13:39:51.398Z,10
2023-03-06T13:40:53.759Z,10
2023-03-06T13:41:56.285Z,10
2023-03-06T13:42:50.966Z,10
2023-03-06T13:43:52.896Z,10
2023-03-06T13:44:51.304Z,10
2023-03-06T13:45:51.718Z,10
2023-03-06T13:46:53.949Z,10
2023-03-06T13:48:51.958Z,10
2023-03-06T13:50:02.634Z,10
2023-03-06T13:51:01.821Z,10
2023-03-06T13:52:02.077Z,10
2023-03-06T13:53:05.953Z,10
2023-03-06T13:54:02.141Z,15
2023-03-06T13:55:02.163Z,15
2023-03-06T13:56:01.981Z,15
2023-03-06T13:57:02.110Z,15
2023-03-06T13:58:01.857Z,15
2023-03-06T13:59:04.882Z,15
2023-03-06T14:00:20.332Z,15
2023-03-06T14:01:01.889Z,15
2023-03-06T14:02:02.091Z,15
2023-03-06T14:03:02.481Z,15
2023-03-06T14:04:05.016Z,15
2023-03-06T14:05:02.212Z,10
2023-03-06T14:06:01.891Z,10
2023-03-06T14:07:02.274Z,10
2023-03-06T14:08:01.920Z,10
2023-03-06T14:09:01.912Z,10
2023-03-06T14:10:06.704Z,10
2023-03-06T14:11:04.681Z,5
2023-03-06T14:12:01.897Z,5
2023-03-06T14:13:01.759Z,5
2023-03-06T14:14:01.991Z,5
2023-03-06T14:15:02.543Z,5
2023-03-06T14:16:01.814Z,5
2023-03-06T14:17:02.998Z,5
2023-03-06T14:18:01.005Z,5
2023-03-06T14:19:00.844Z,5
2023-03-06T14:20:04.629Z,5
2023-03-06T14:21:01.559Z,5
2023-03-06T14:22:01.339Z,5
2023-03-06T14:23:01.523Z,5
2023-03-06T14:24:04.577Z,5
2023-03-06T14:25:01.622Z,5
2023-03-06T14:26:04.451Z,5
2023-03-06T14:27:01.482Z,5
2023-03-06T14:28:18.801Z,5
2023-03-06T14:29:01.489Z,5
2023-03-06T14:30:01.505Z,5
2023-03-06T14:31:03.028Z,5
2023-03-06T14:32:01.525Z,5
2023-03-06T14:33:01.606Z,5
2023-03-06T14:34:01.612Z,10
2023-03-06T14:35:01.605Z,10
2023-03-06T14:36:03.927Z,10
2023-03-06T14:37:04.288Z,10